Time;durP1;ratioP1;P1;durP2;ratioP2;P2;SDS_P1;SDS_P2;PMS_P1;PMS_P2;Temp;Humidity;BMP_temperature;BMP_pressure;BME280_temperature;BME280_humidity;BME280_pressure;Samples;Min_cycle;Max_cycle;Signal;HPM_P1;HPM_P2
2023/08/18 00:01:53;;;;;;;31.20;29.55;;;;;;;20.16;100.00;93134.06;5064775;28;20146;-76
2023/08/18 00:04:20;;;;;;;35.40;33.45;;;;;;;20.13;100.00;93139.00;5064786;28;20044;-76
2023/08/18 00:06:47;;;;;;;35.28;33.35;;;;;;;20.07;100.00;93140.88;5069472;28;21659;-76
2023/08/18 00:09:15;;;;;;;32.83;31.10;;;;;;;20.08;100.00;93142.44;5066316;28;20453;-76
2023/08/18 00:11:42;;;;;;;36.38;34.55;;;;;;;20.02;100.00;93140.91;5069885;28;20630;-76
2023/08/18 00:14:08;;;;;;;30.08;28.35;;;;;;;19.96;100.00;93142.78;5064988;28;20110;-76
2023/08/18 00:16:35;;;;;;;33.75;32.05;;;;;;;20.00;100.00;93149.00;5069226;28;20106;-76
2023/08/18 00:19:02;;;;;;;34.42;32.42;;;;;;;19.93;100.00;93143.28;5065681;28;20041;-76
2023/08/18 00:21:29;;;;;;;26.20;24.45;;;;;;;19.80;100.00;93144.66;5067175;28;20238;-76
2023/08/18 00:23:55;;;;;;;31.90;30.15;;;;;;;19.79;100.00;93142.31;5062304;28;20102;-76
2023/08/18 00:26:23;;;;;;;32.17;30.17;;;;;;;19.83;100.00;93141.53;5068747;28;20052;-76
2023/08/18 00:28:50;;;;;;;31.65;30.00;;;;;;;19.75;100.00;93144.69;5068663;28;20048;-76
2023/08/18 00:31:17;;;;;;;38.28;35.97;;;;;;;19.39;100.00;93135.19;5068413;28;20053;-76
2023/08/18 00:33:43;;;;;;;41.60;39.42;;;;;;;19.43;100.00;93143.25;5063608;28;20461;-76
2023/08/18 00:36:10;;;;;;;36.92;34.80;;;;;;;19.50;100.00;93143.75;5067070;28;20048;-76
2023/08/18 00:38:37;;;;;;;51.78;49.15;;;;;;;19.56;100.00;93147.09;5062886;28;20048;-76
2023/08/18 00:41:04;;;;;;;52.92;50.30;;;;;;;19.58;100.00;93140.59;5068160;28;20052;-76
2023/08/18 00:43:32;;;;;;;48.60;46.25;;;;;;;19.61;100.00;93155.69;5064924;28;20098;-76
2023/08/18 00:45:59;;;;;;;34.00;31.98;;;;;;;19.61;100.00;93149.69;5066572;28;20044;-76
2023/08/18 00:48:26;;;;;;;33.05;31.25;;;;;;;19.63;100.00;93160.66;5064194;28;20103;-76
2023/08/18 00:50:54;;;;;;;28.98;27.17;;;;;;;19.62;100.00;93162.47;5068198;28;20055;-76
2023/08/18 00:53:21;;;;;;;26.58;25.05;;;;;;;19.62;100.00;93156.47;5066307;28;20053;-76
2023/08/18 00:55:49;;;;;;;31.27;29.30;;;;;;;19.62;100.00;93153.84;5068826;28;20045;-76
2023/08/18 00:58:15;;;;;;;29.42;27.77;;;;;;;19.60;100.00;93155.97;5062183;28;20053;-76
2023/08/18 01:00:45;;;;;;;29.75;28.15;;;;;;;19.56;100.00;93152.31;5067505;28;20052;-76
2023/08/18 01:03:12;;;;;;;30.35;28.63;;;;;;;19.39;100.00;93129.97;5064369;28;20053;-76
2023/08/18 01:05:38;;;;;;;25.75;24.17;;;;;;;19.52;100.00;93144.25;5066907;28;20568;-76
2023/08/18 01:08:05;;;;;;;33.15;31.15;;;;;;;19.52;100.00;93149.47;5067836;28;20094;-76
2023/08/18 01:10:39;;;;;;;30.20;28.50;;;;;;;19.47;100.00;93149.50;5064223;28;20117;-76
2023/08/18 01:13:12;;;;;;;28.38;26.75;;;;;;;19.44;100.00;93147.44;5066751;28;20048;-76
2023/08/18 01:15:41;;;;;;;32.03;30.33;;;;;;;19.34;100.00;93145.63;5064731;28;20040;-76
2023/08/18 01:18:11;;;;;;;32.03;30.30;;;;;;;19.34;100.00;93143.03;5065185;28;20094;-76
2023/08/18 01:20:38;;;;;;;28.63;26.95;;;;;;;19.23;100.00;93134.47;5064168;28;20048;-76
2023/08/18 01:23:06;;;;;;;34.30;32.53;;;;;;;19.36;100.00;93149.53;5065986;28;20125;-76
2023/08/18 01:25:33;;;;;;;32.78;30.90;;;;;;;19.38;100.00;93153.72;5064118;28;20044;-76
2023/08/18 01:28:02;;;;;;;27.98;26.15;;;;;;;19.38;100.00;93154.47;5064349;28;20844;-76
2023/08/18 01:30:34;;;;;;;31.88;29.88;;;;;;;19.28;100.00;93146.69;5065191;28;20053;-76
2023/08/18 01:33:09;;;;;;;31.25;29.50;;;;;;;19.33;100.00;93157.88;5065992;28;20048;-75
2023/08/18 01:35:36;;;;;;;31.42;29.73;;;;;;;19.25;100.00;93150.59;5064519;28;20086;-75
2023/08/18 01:38:06;;;;;;;28.75;27.15;;;;;;;19.22;100.00;93151.91;5065094;28;20048;-75
2023/08/18 01:40:34;;;;;;;31.30;29.50;;;;;;;19.24;100.00;93156.84;5067277;28;20056;-75
2023/08/18 01:43:01;;;;;;;31.42;29.73;;;;;;;19.28;100.00;93157.09;5063955;28;20117;-75
2023/08/18 01:45:27;;;;;;;31.52;29.52;;;;;;;19.27;100.00;93145.94;5067608;28;20048;-75
2023/08/18 01:47:54;;;;;;;32.85;31.13;;;;;;;19.25;100.00;93155.81;5064999;28;20560;-75
2023/08/18 01:50:21;;;;;;;28.02;26.38;;;;;;;19.21;100.00;93154.81;5062935;28;20052;-75
2023/08/18 01:52:48;;;;;;;33.50;31.70;;;;;;;19.16;100.00;93152.22;5064847;28;20541;-75
2023/08/18 01:55:16;;;;;;;35.13;33.28;;;;;;;19.11;100.00;93142.56;5064448;28;20049;-76
2023/08/18 01:57:42;;;;;;;39.35;37.20;;;;;;;19.12;100.00;93146.72;5062429;28;20044;-76
2023/08/18 02:00:10;;;;;;;30.23;28.52;;;;;;;19.11;100.00;93150.38;5063160;28;20094;-76
2023/08/18 02:02:36;;;;;;;30.35;28.52;;;;;;;19.07;100.00;93152.72;5066933;28;20449;-76
2023/08/18 02:05:03;;;;;;;32.85;31.15;;;;;;;19.02;100.00;93147.50;5065592;28;20102;-76
2023/08/18 02:07:30;;;;;;;27.92;26.30;;;;;;;19.03;100.00;93150.91;5063662;28;20094;-76
2023/08/18 02:09:56;;;;;;;30.33;28.58;;;;;;;18.99;100.00;93139.44;5064086;28;20559;-76
2023/08/18 02:12:26;;;;;;;34.72;32.80;;;;;;;18.95;100.00;93134.00;5065124;28;20048;-76
2023/08/18 02:14:53;;;;;;;32.90;31.17;;;;;;;18.93;100.00;93136.84;5062531;28;20049;-76
2023/08/18 02:17:19;;;;;;;31.48;29.88;;;;;;;18.89;100.00;93129.84;5064732;28;20494;-76
2023/08/18 02:19:46;;;;;;;30.35;28.65;;;;;;;18.85;100.00;93140.00;5062453;28;20095;-76
2023/08/18 02:22:13;;;;;;;32.72;30.85;;;;;;;18.85;100.00;93134.00;5063734;28;20052;-76
2023/08/18 02:24:40;;;;;;;33.97;32.15;;;;;;;18.81;100.00;93138.97;5066267;28;20044;-76
2023/08/18 02:27:06;;;;;;;33.47;31.55;;;;;;;18.78;100.00;93137.66;5059071;28;20469;-76
2023/08/18 02:29:35;;;;;;;33.42;31.42;;;;;;;18.79;100.00;93136.63;5060607;28;20094;-76
2023/08/18 02:32:03;;;;;;;31.02;29.38;;;;;;;18.78;100.00;93140.25;5064905;28;20327;-76
2023/08/18 02:34:30;;;;;;;30.58;28.88;;;;;;;18.76;100.00;93133.75;5066915;28;20056;-76
2023/08/18 02:36:56;;;;;;;28.05;26.20;;;;;;;18.77;100.00;93135.31;5063699;28;20565;-76
2023/08/18 02:39:23;;;;;;;31.98;30.15;;;;;;;18.76;100.00;93134.56;5065298;28;20048;-76
2023/08/18 02:41:51;;;;;;;31.35;29.58;;;;;;;18.74;100.00;93128.06;5062435;28;20503;-76
2023/08/18 02:44:18;;;;;;;34.75;32.72;;;;;;;18.59;100.00;93113.22;5065620;28;20049;-74
2023/08/18 02:46:46;;;;;;;35.05;32.95;;;;;;;18.70;100.00;93131.16;5066397;28;20053;-75
2023/08/18 02:49:13;;;;;;;30.98;28.90;;;;;;;18.69;100.00;93128.81;5065305;28;20052;-74
2023/08/18 02:51:40;;;;;;;35.88;33.85;;;;;;;18.68;100.00;93130.66;5062597;28;20059;-74
2023/08/18 02:54:07;;;;;;;36.42;34.42;;;;;;;18.61;100.00;93134.56;5064755;28;20105;-74
2023/08/18 02:56:33;;;;;;;43.92;41.38;;;;;;;18.54;100.00;93135.59;5060507;28;20041;-74
2023/08/18 02:59:00;;;;;;;33.60;31.63;;;;;;;18.49;100.00;93130.41;5061951;28;20052;-74
2023/08/18 03:01:27;;;;;;;36.30;34.30;;;;;;;18.46;100.00;93136.13;5062442;28;20980;-74
2023/08/18 03:03:55;;;;;;;41.58;39.42;;;;;;;18.42;100.00;93135.88;5063808;28;20106;-75
2023/08/18 03:06:22;;;;;;;34.22;32.42;;;;;;;18.32;100.00;93135.84;5065366;28;20044;-75
2023/08/18 03:08:48;;;;;;;32.83;30.88;;;;;;;18.10;100.00;93129.06;5062558;28;20499;-75
2023/08/18 03:11:15;;;;;;;34.65;32.63;;;;;;;17.93;100.00;93129.31;5063392;28;20114;-75
2023/08/18 03:13:42;;;;;;;48.75;46.17;;;;;;;17.89;100.00;93133.44;5066114;28;20049;-75
2023/08/18 03:16:09;;;;;;;40.65;38.45;;;;;;;17.96;100.00;93133.97;5060138;28;20044;-74
2023/08/18 03:18:36;;;;;;;35.15;32.88;;;;;;;18.05;100.00;93133.47;5064237;28;20049;-74
2023/08/18 03:21:04;;;;;;;39.97;37.65;;;;;;;18.12;100.00;93134.03;5066177;28;20848;-74
2023/08/18 03:23:31;;;;;;;32.13;30.08;;;;;;;18.18;100.00;93140.03;5062635;28;20111;-75
2023/08/18 03:26:02;;;;;;;29.88;28.17;;;;;;;18.22;100.00;93141.03;5064461;28;20098;-74
2023/08/18 03:28:28;;;;;;;35.83;33.75;;;;;;;18.22;100.00;93141.03;5060746;28;20052;-74
2023/08/18 03:30:59;;;;;;;29.65;27.65;;;;;;;18.23;100.00;93140.03;5061978;28;20453;-75
2023/08/18 03:33:27;;;;;;;33.80;31.40;;;;;;;18.14;100.00;93134.53;5064051;28;20050;-73
2023/08/18 03:35:53;;;;;;;31.60;29.45;;;;;;;18.18;100.00;93140.78;5062932;28;20078;-73
2023/08/18 03:38:21;;;;;;;33.83;31.75;;;;;;;18.21;100.00;93140.28;5062378;28;20044;-74
2023/08/18 03:40:49;;;;;;;36.17;34.17;;;;;;;18.21;100.00;93142.09;5064821;28;20044;-74
2023/08/18 03:43:16;;;;;;;32.80;30.88;;;;;;;18.12;100.00;93144.41;5062792;28;20051;-74
2023/08/18 03:45:42;;;;;;;36.40;34.33;;;;;;;18.12;100.00;93142.63;5065830;28;20053;-74
2023/08/18 03:48:09;;;;;;;29.77;28.17;;;;;;;18.13;100.00;93143.38;5056719;28;20041;-75
2023/08/18 03:50:39;;;;;;;31.08;29.27;;;;;;;18.09;100.00;93147.56;5065418;28;20048;-75
2023/08/18 03:53:05;;;;;;;31.10;29.20;;;;;;;18.14;100.00;93150.94;5065070;28;20114;-75
2023/08/18 03:55:33;;;;;;;33.00;30.98;;;;;;;18.10;100.00;93138.72;5065429;28;20048;-75
2023/08/18 03:58:00;;;;;;;33.20;31.35;;;;;;;18.11;100.00;93135.06;5059947;28;20575;-75
2023/08/18 04:00:27;;;;;;;29.80;28.10;;;;;;;18.05;100.00;93136.06;5065234;28;20045;-75
2023/08/18 04:02:54;;;;;;;32.75;30.75;;;;;;;18.10;100.00;93139.47;5065419;28;20594;-76
2023/08/18 04:05:21;;;;;;;29.02;27.23;;;;;;;18.11;100.00;93140.25;5063301;28;20044;-75
2023/08/18 04:07:48;;;;;;;33.80;31.70;;;;;;;18.11;100.00;93141.06;5060850;28;20048;-75
2023/08/18 04:10:14;;;;;;;39.95;37.65;;;;;;;18.10;100.00;93143.91;5063320;28;20056;-75
2023/08/18 04:12:43;;;;;;;30.48;28.73;;;;;;;18.14;100.00;93132.72;5063212;28;20760;-75
2023/08/18 04:15:10;;;;;;;36.30;34.15;;;;;;;18.19;100.00;93146.78;5060155;28;20498;-75
2023/08/18 04:17:37;;;;;;;37.90;35.67;;;;;;;18.19;100.00;93142.34;5059047;28;20048;-75
2023/08/18 04:20:06;;;;;;;32.13;30.23;;;;;;;18.17;100.00;93141.84;5063843;28;20102;-75
2023/08/18 04:22:32;;;;;;;38.85;36.55;;;;;;;18.17;100.00;93147.03;5062188;28;20143;-76
2023/08/18 04:24:59;;;;;;;31.35;29.48;;;;;;;18.21;100.00;93150.69;5063285;28;20052;-76
2023/08/18 04:27:26;;;;;;;34.63;32.53;;;;;;;18.26;100.00;93145.50;5066523;28;20118;-76
2023/08/18 04:29:55;;;;;;;32.63;30.42;;;;;;;18.33;100.00;93147.06;5063464;28;20133;-75
2023/08/18 04:32:21;;;;;;;33.55;31.58;;;;;;;18.35;100.00;93150.94;5063971;28;20102;-76
2023/08/18 04:34:48;;;;;;;37.03;34.83;;;;;;;18.36;100.00;93156.91;5068664;28;20498;-76
2023/08/18 04:37:15;;;;;;;36.45;34.20;;;;;;;18.42;100.00;93166.28;5065977;28;20044;-76
2023/08/18 04:39:41;;;;;;;38.13;36.03;;;;;;;18.37;100.00;93158.50;5067207;28;20056;-76
2023/08/18 04:42:08;;;;;;;36.88;34.70;;;;;;;18.43;100.00;93147.06;5059519;28;20556;-76
2023/08/18 04:44:35;;;;;;;37.40;35.17;;;;;;;18.45;100.00;93163.16;5061976;28;20056;-76
2023/08/18 04:47:05;;;;;;;35.63;33.40;;;;;;;18.53;100.00;93161.88;5068162;28;20461;-76
2023/08/18 04:49:31;;;;;;;33.42;31.42;;;;;;;18.61;100.00;93165.78;5066808;28;20048;-76
2023/08/18 04:51:58;;;;;;;38.72;36.33;;;;;;;18.66;100.00;93165.78;5067364;28;20041;-76
2023/08/18 04:54:25;;;;;;;35.47;33.38;;;;;;;18.67;100.00;93175.13;5067512;28;20048;-76
2023/08/18 04:56:59;;;;;;;35.28;33.20;;;;;;;18.79;100.00;93167.06;5068430;28;20044;-76
2023/08/18 04:59:25;;;;;;;35.80;33.65;;;;;;;18.82;100.00;93163.94;5065182;28;20696;-76
2023/08/18 05:01:52;;;;;;;36.35;33.85;;;;;;;18.90;100.00;93160.03;5067679;28;20106;-76
2023/08/18 05:04:20;;;;;;;39.58;36.85;;;;;;;18.94;100.00;93155.88;5061454;28;20122;-76
2023/08/18 05:06:47;;;;;;;37.88;35.40;;;;;;;18.71;100.00;93157.97;5067356;28;20048;-76
2023/08/18 05:09:14;;;;;;;36.65;34.38;;;;;;;18.81;100.00;93162.38;5063590;28;20550;-76
2023/08/18 05:11:41;;;;;;;36.47;34.03;;;;;;;18.89;100.00;93158.47;5068371;28;20044;-75
2023/08/18 05:14:07;;;;;;;22.52;20.90;;;;;;;18.96;100.00;93151.97;5065535;28;20057;-75
2023/08/18 05:16:34;;;;;;;22.52;20.92;;;;;;;19.04;100.00;93155.09;5067588;28;20457;-75
2023/08/18 05:19:02;;;;;;;27.33;25.42;;;;;;;19.23;100.00;93169.13;5063736;28;20045;-75
2023/08/18 05:21:30;;;;;;;28.23;26.42;;;;;;;19.30;100.00;93160.25;5066318;28;20049;-75
2023/08/18 05:23:57;;;;;;;28.27;26.58;;;;;;;19.39;100.00;93160.47;5064411;28;20057;-75
2023/08/18 05:26:24;;;;;;;24.83;23.13;;;;;;;19.46;100.00;93163.56;5068307;28;20052;-76
2023/08/18 05:28:50;;;;;;;23.08;21.48;;;;;;;19.61;100.00;93166.13;5066187;28;20055;-75
2023/08/18 05:31:17;;;;;;;14.80;13.55;;;;;;;19.63;100.00;93161.41;5063270;28;20048;-75
2023/08/18 05:33:44;;;;;;;18.02;16.55;;;;;;;19.83;100.00;93169.41;5063694;28;20452;-75
2023/08/18 05:36:11;;;;;;;14.95;13.50;;;;;;;19.93;100.00;93171.97;5067040;28;20049;-75
2023/08/18 05:38:39;;;;;;;16.02;14.80;;;;;;;19.99;100.00;93167.50;5064619;28;20098;-75
2023/08/18 05:41:07;;;;;;;12.95;11.95;;;;;;;19.96;100.00;93171.47;5067125;28;20102;-75
2023/08/18 05:43:35;;;;;;;17.10;15.85;;;;;;;20.00;100.00;93158.66;5064189;28;21428;-76
2023/08/18 05:46:03;;;;;;;18.23;16.85;;;;;;;20.02;100.00;93177.41;5065526;28;20068;-75
2023/08/18 05:48:30;;;;;;;20.27;18.38;;;;;;;20.07;100.00;93168.78;5066638;28;20106;-76
2023/08/18 05:50:57;;;;;;;17.98;16.50;;;;;;;20.21;100.00;93171.56;5066645;28;20510;-77
2023/08/18 05:53:24;;;;;;;16.20;14.85;;;;;;;20.30;100.00;93169.94;5065334;28;20114;-76
2023/08/18 05:55:52;;;;;;;15.50;14.40;;;;;;;20.45;100.00;93166.44;5066283;28;20094;-76
2023/08/18 05:58:19;;;;;;;14.93;13.50;;;;;;;20.48;100.00;93163.31;5062451;28;20113;-76
2023/08/18 06:00:49;;;;;;;14.75;13.32;;;;;;;20.74;100.00;93173.53;5065799;28;20041;-76
2023/08/18 06:03:17;;;;;;;13.57;12.45;;;;;;;20.89;100.00;93177.09;5066249;28;20059;-76
2023/08/18 06:05:43;;;;;;;10.60;9.70;;;;;;;21.04;100.00;93179.56;5062632;28;20071;-76
2023/08/18 06:08:10;;;;;;;10.50;9.60;;;;;;;21.20;100.00;93163.75;5062324;28;20143;-75
2023/08/18 06:10:37;;;;;;;10.73;9.55;;;;;;;21.37;100.00;93168.53;5067134;28;20098;-76
2023/08/18 06:13:05;;;;;;;11.02;10.02;;;;;;;21.56;99.84;93168.59;5062734;28;20126;-76
2023/08/18 06:15:32;;;;;;;10.57;9.63;;;;;;;21.72;99.06;93165.81;5061259;28;20093;-76
2023/08/18 06:17:58;;;;;;;8.73;7.85;;;;;;;21.88;96.59;93161.94;5062903;28;20090;-76
2023/08/18 06:20:25;;;;;;;10.52;8.73;;;;;;;22.03;95.67;93166.19;5065407;28;20094;-76
2023/08/18 06:22:52;;;;;;;11.32;8.77;;;;;;;22.22;94.74;93168.03;5063406;28;20107;-76
2023/08/18 06:25:19;;;;;;;9.05;7.47;;;;;;;22.48;93.06;93172.91;5066563;28;20049;-75
2023/08/18 06:27:45;;;;;;;8.27;6.55;;;;;;;22.71;91.15;93167.09;5064463;28;20040;-76
2023/08/18 06:30:13;;;;;;;9.43;7.05;;;;;;;22.95;90.26;93174.78;5065224;28;20498;-76
2023/08/18 06:32:40;;;;;;;9.70;7.10;;;;;;;23.15;89.35;93176.28;5063252;28;20041;-76
2023/08/18 06:35:08;;;;;;;8.10;7.22;;;;;;;23.25;88.40;93169.31;5064840;28;20102;-76
2023/08/18 06:37:34;;;;;;;8.15;6.47;;;;;;;23.49;87.13;93175.19;5063215;28;20502;-76
2023/08/18 06:40:02;;;;;;;8.18;6.57;;;;;;;23.84;86.71;93181.88;5064635;28;20052;-76
2023/08/18 06:42:29;;;;;;;8.40;5.50;;;;;;;23.94;84.54;93180.88;5061992;28;20804;-76
2023/08/18 06:44:55;;;;;;;10.27;6.43;;;;;;;24.10;83.08;93184.75;5061577;28;20118;-77
2023/08/18 06:47:24;;;;;;;8.50;5.93;;;;;;;24.35;82.29;93177.38;5063353;28;20573;-76
2023/08/18 06:49:50;;;;;;;11.13;6.15;;;;;;;24.52;80.83;93174.13;5059529;28;20132;-78
2023/08/18 06:52:17;;;;;;;7.93;6.15;;;;;;;24.64;78.99;93181.47;5065608;28;20048;-77
2023/08/18 06:54:44;;;;;;;7.20;6.18;;;;;;;24.52;78.81;93176.75;5064836;28;20040;-76
2023/08/18 06:57:11;;;;;;;6.68;5.75;;;;;;;24.77;78.54;93173.81;5060141;28;20498;-76
2023/08/18 06:59:38;;;;;;;7.50;5.90;;;;;;;24.89;77.67;93179.31;5063768;28;20138;-78
2023/08/18 07:02:04;;;;;;;8.18;6.38;;;;;;;24.85;77.58;93178.38;5065060;28;20498;-75
2023/08/18 07:04:33;;;;;;;8.75;6.00;;;;;;;25.14;77.67;93174.53;5063628;28;20053;-75
2023/08/18 07:06:59;;;;;;;12.70;5.78;;;;;;;25.38;77.78;93168.13;5065255;28;20502;-77
2023/08/18 07:09:26;;;;;;;16.90;6.72;;;;;;;25.70;76.44;93170.72;5061670;28;20041;-76
2023/08/18 07:11:53;;;;;;;6.35;5.30;;;;;;;25.99;73.45;93169.38;5064785;28;20040;-79
2023/08/18 07:14:20;;;;;;;11.98;5.80;;;;;;;26.26;74.50;93167.56;5061774;28;20048;-80
2023/08/18 07:16:46;;;;;;;13.52;5.60;;;;;;;26.53;74.33;93165.69;5063319;28;20055;-77
2023/08/18 07:19:13;;;;;;;9.77;5.22;;;;;;;26.85;72.80;93168.13;5063073;28;20897;-77
2023/08/18 07:21:41;;;;;;;8.95;5.00;;;;;;;27.13;70.45;93165.94;5062496;28;20056;-77
2023/08/18 07:24:08;;;;;;;7.45;5.20;;;;;;;27.40;68.52;93171.84;5063810;28;20612;-77
2023/08/18 07:26:35;;;;;;;9.38;5.22;;;;;;;27.49;68.37;93158.63;5064873;28;20506;-77
2023/08/18 07:29:03;;;;;;;8.13;5.32;;;;;;;27.82;67.17;93162.53;5061993;28;20049;-76
2023/08/18 07:31:29;;;;;;;5.82;5.10;;;;;;;27.87;64.47;93165.75;5062032;28;20414;-76
2023/08/18 07:33:56;;;;;;;6.00;3.90;;;;;;;27.94;66.30;93161.81;5063278;28;20053;-77
2023/08/18 07:36:23;;;;;;;6.85;4.88;;;;;;;27.72;66.03;93164.44;5064804;28;20102;-77
2023/08/18 07:38:51;;;;;;;6.93;4.82;;;;;;;27.65;65.62;93166.03;5063541;28;20494;-78
2023/08/18 07:41:17;;;;;;;7.28;4.95;;;;;;;27.94;65.93;93156.53;5064038;28;20048;-78
2023/08/18 07:43:44;;;;;;;8.02;4.97;;;;;;;28.11;64.76;93159.09;5061714;28;20091;-77
2023/08/18 07:46:11;;;;;;;6.22;4.65;;;;;;;28.09;64.00;93155.22;5063890;28;20051;-77
2023/08/18 07:48:38;;;;;;;7.90;4.90;;;;;;;28.21;62.91;93165.06;5066373;28;20037;-76
2023/08/18 07:51:05;;;;;;;5.13;4.60;;;;;;;28.44;63.13;93149.69;5063948;28;20052;-78
2023/08/18 07:53:32;;;;;;;7.65;5.10;;;;;;;28.56;61.69;93161.41;5062574;28;20055;-77
2023/08/18 07:56:00;;;;;;;7.38;6.32;;;;;;;28.66;62.07;93161.75;5068032;28;20048;-79
2023/08/18 07:58:27;;;;;;;8.43;5.68;;;;;;;29.07;62.42;93169.94;5063752;28;20474;-79
2023/08/18 08:00:55;;;;;;;11.98;4.95;;;;;;;29.29;60.46;93156.66;5067670;28;20468;-79
2023/08/18 08:03:22;;;;;;;7.95;4.63;;;;;;;29.46;59.93;93163.59;5065910;28;20044;-79
2023/08/18 08:05:49;;;;;;;5.47;4.10;;;;;;;29.67;58.25;93166.13;5066206;28;20052;-79
2023/08/18 08:08:16;;;;;;;5.70;5.03;;;;;;;29.85;57.75;93164.03;5068572;28;20040;-78
2023/08/18 08:10:42;;;;;;;7.55;4.68;;;;;;;30.10;56.87;93164.03;5066758;28;20097;-78
2023/08/18 08:13:10;;;;;;;9.82;5.15;;;;;;;30.20;56.43;93154.84;5062262;28;20106;-79
2023/08/18 08:15:37;;;;;;;5.53;4.78;;;;;;;30.43;56.29;93154.31;5065991;28;20044;-79
2023/08/18 08:18:04;;;;;;;8.95;4.57;;;;;;;30.69;56.91;93153.16;5068677;28;20049;-78
2023/08/18 08:20:31;;;;;;;7.75;4.55;;;;;;;30.87;55.74;93156.25;5065895;28;20059;-78
2023/08/18 08:22:58;;;;;;;6.18;4.28;;;;;;;30.97;54.01;93151.56;5066683;28;20044;-79
2023/08/18 08:25:25;;;;;;;10.98;5.20;;;;;;;30.88;54.51;93149.06;5066036;28;20055;-78
2023/08/18 08:27:52;;;;;;;5.68;4.45;;;;;;;30.93;53.08;93146.94;5067537;28;20055;-79
2023/08/18 08:30:21;;;;;;;6.10;4.43;;;;;;;31.11;53.52;93148.50;5067649;28;20040;-79
2023/08/18 08:32:47;;;;;;;6.35;3.85;;;;;;;31.29;52.03;93141.00;5067858;28;20048;-79
2023/08/18 08:35:14;;;;;;;7.30;4.53;;;;;;;31.34;53.08;93127.47;5067932;28;20114;-78
2023/08/18 08:37:42;;;;;;;7.22;4.82;;;;;;;31.64;52.21;93164.16;5067310;28;20044;-79
2023/08/18 08:40:14;;;;;;;13.30;4.70;;;;;;;31.78;50.66;93160.28;5067877;28;20106;-79
2023/08/18 08:42:41;;;;;;;8.43;4.47;;;;;;;31.95;50.86;93156.50;5068578;28;20524;-79
2023/08/18 08:45:09;;;;;;;8.65;4.47;;;;;;;31.97;49.90;93139.13;5061828;28;20052;-79
2023/08/18 08:47:37;;;;;;;5.40;4.45;;;;;;;31.86;50.58;93154.84;5067577;28;20044;-79
2023/08/18 08:50:06;;;;;;;7.55;4.38;;;;;;;31.75;51.19;93127.25;5066960;28;20094;-79
2023/08/18 08:52:38;;;;;;;6.60;3.92;;;;;;;32.03;49.20;93165.41;5068149;28;20094;-79
2023/08/18 08:55:07;;;;;;;6.28;4.40;;;;;;;32.21;47.44;93161.22;5066629;28;20060;-80
2023/08/18 08:57:35;;;;;;;5.05;3.70;;;;;;;32.45;46.24;93156.03;5064695;28;20502;-80
2023/08/18 09:00:03;;;;;;;7.05;4.65;;;;;;;32.64;47.52;93161.31;5065152;28;20044;-79
2023/08/18 09:02:29;;;;;;;5.28;4.53;;;;;;;32.68;46.66;93157.97;5066261;28;20048;-79
2023/08/18 09:05:00;;;;;;;5.65;4.80;;;;;;;32.82;46.35;93160.91;5065384;28;20044;-79
2023/08/18 09:07:28;;;;;;;4.47;3.95;;;;;;;32.68;43.31;93160.63;5065954;28;20143;-79
2023/08/18 09:09:54;;;;;;;4.78;3.60;;;;;;;32.02;42.78;93161.22;5067796;28;20107;-78
2023/08/18 09:12:28;;;;;;;4.75;3.95;;;;;;;31.58;44.40;93141.66;5064658;28;20560;-78
2023/08/18 09:14:55;;;;;;;6.88;4.20;;;;;;;32.08;47.75;93151.84;5062824;28;20167;-78
2023/08/18 09:17:22;;;;;;;6.55;4.85;;;;;;;32.40;44.59;93154.41;5063753;28;20056;-78
2023/08/18 09:19:49;;;;;;;5.40;3.88;;;;;;;32.64;44.07;93134.72;5066652;28;20135;-78
2023/08/18 09:22:22;;;;;;;4.68;3.88;;;;;;;31.96;41.46;93113.66;5066652;28;20139;-78
2023/08/18 09:24:50;;;;;;;4.80;3.72;;;;;;;32.05;42.12;93152.53;5064518;28;20131;-78
2023/08/18 09:27:17;;;;;;;4.60;3.90;;;;;;;32.28;43.52;93134.03;5066243;28;20123;-78
2023/08/18 09:29:44;;;;;;;6.15;4.57;;;;;;;32.44;43.22;93141.19;5064667;28;20048;-78
2023/08/18 09:32:11;;;;;;;4.30;3.67;;;;;;;31.70;42.02;93135.47;5064262;28;20052;-77
2023/08/18 09:34:38;;;;;;;5.30;3.17;;;;;;;31.96;41.54;93142.88;5067300;28;20102;-78
2023/08/18 09:37:05;;;;;;;4.97;3.40;;;;;;;32.25;40.17;93146.13;5064223;28;20484;-78
2023/08/18 09:39:33;;;;;;;5.28;3.92;;;;;;;32.08;41.68;93141.22;5064806;28;20054;-78
2023/08/18 09:42:00;;;;;;;4.55;3.88;;;;;;;31.67;40.88;93131.63;5066222;28;20044;-77
2023/08/18 09:44:28;;;;;;;4.63;4.22;;;;;;;31.20;41.81;93136.59;5063051;28;20110;-77
2023/08/18 09:46:56;;;;;;;4.43;4.03;;;;;;;30.53;43.01;93137.94;5065970;28;20087;-78
2023/08/18 09:49:24;;;;;;;4.78;4.30;;;;;;;31.08;43.21;93142.00;5065972;28;20044;-78
2023/08/18 09:51:52;;;;;;;4.40;4.00;;;;;;;31.31;42.28;93131.59;5063538;28;20048;-78
2023/08/18 09:54:20;;;;;;;5.70;4.70;;;;;;;30.78;43.93;93126.50;5066445;28;20453;-78
2023/08/18 09:56:51;;;;;;;4.95;3.53;;;;;;;31.16;42.90;93119.06;5063237;28;20095;-77
2023/08/18 09:59:23;;;;;;;4.07;3.60;;;;;;;31.07;43.28;93121.88;5061179;28;20048;-78
2023/08/18 10:01:52;;;;;;;3.80;3.50;;;;;;;30.62;43.31;93126.41;5062038;28;20131;-77
2023/08/18 10:04:24;;;;;;;3.80;3.50;;;;;;;30.18;42.11;93124.50;5064202;28;20067;-77
2023/08/18 10:06:52;;;;;;;4.40;4.00;;;;;;;29.90;45.35;93136.59;5065063;28;20575;-77
2023/08/18 10:09:20;;;;;;;5.20;4.30;;;;;;;29.80;45.23;93127.19;5064618;28;20096;-78
2023/08/18 10:11:50;;;;;;;6.38;4.38;;;;;;;29.70;45.51;93132.94;5064820;28;20040;-77
2023/08/18 10:14:19;;;;;;;4.75;3.95;;;;;;;29.84;45.92;93120.13;5061556;28;20135;-78
2023/08/18 10:16:47;;;;;;;4.60;4.25;;;;;;;30.04;45.36;93115.03;5058097;28;20044;-77
2023/08/18 10:19:14;;;;;;;5.43;4.47;;;;;;;29.86;43.42;93127.75;5062770;28;20048;-79
2023/08/18 10:21:41;;;;;;;5.45;3.83;;;;;;;30.25;44.85;93122.03;5062016;28;20060;-79
2023/08/18 10:24:08;;;;;;;5.95;4.15;;;;;;;30.47;44.16;93130.56;5064252;28;20125;-77
2023/08/18 10:26:36;;;;;;;5.32;4.70;;;;;;;30.27;44.36;93128.53;5062182;28;20472;-77
2023/08/18 10:29:17;;;;;;;8.05;4.38;;;;;;;30.54;43.42;93123.59;5063508;28;20040;-77
2023/08/18 10:31:48;;;;;;;5.13;3.95;;;;;;;30.96;42.98;93129.56;5061611;28;20052;-79
2023/08/18 10:34:21;;;;;;;4.32;3.92;;;;;;;30.94;41.81;93110.59;5063615;28;20076;-78
2023/08/18 10:36:48;;;;;;;5.38;3.53;;;;;;;31.68;42.69;93135.03;5066498;28;20581;-78
2023/08/18 10:39:23;;;;;;;5.38;4.00;;;;;;;31.91;41.41;93129.09;5063929;28;20174;-79
2023/08/18 10:42:04;;;;;;;;;;;;;;;31.97;40.60;93128.50;5065265;28;20041;-79
2023/08/18 10:44:32;;;;;;;6.32;3.95;;;;;;;31.31;42.77;93128.16;5061026;28;19925;-78
2023/08/18 10:46:59;;;;;;;4.10;3.70;;;;;;;30.98;42.00;93127.34;5062860;28;20049;-77
2023/08/18 10:49:25;;;;;;;4.45;3.80;;;;;;;31.41;42.96;93124.19;5065509;28;20094;-78
2023/08/18 10:51:54;;;;;;;4.45;4.05;;;;;;;31.42;40.97;93118.56;5063773;28;20076;-78
2023/08/18 10:54:23;;;;;;;10.38;4.13;;;;;;;31.75;41.28;93119.28;5064848;28;20045;-79
2023/08/18 10:56:50;;;;;;;8.43;3.63;;;;;;;31.25;42.13;93118.88;5064551;28;20044;-77
2023/08/18 10:59:18;;;;;;;8.13;3.92;;;;;;;31.16;42.07;93119.84;5063209;28;20053;-78
2023/08/18 11:01:46;;;;;;;4.85;3.90;;;;;;;31.85;40.57;93121.41;5066269;28;20037;-79
2023/08/18 11:04:15;;;;;;;5.10;3.78;;;;;;;32.26;40.07;93120.34;5058108;28;20194;-79
2023/08/18 11:06:42;;;;;;;4.57;4.10;;;;;;;31.83;40.17;93125.50;5060856;28;20055;-79
2023/08/18 11:09:10;;;;;;;4.60;4.20;;;;;;;31.86;40.21;93122.19;5064657;28;20074;-79
2023/08/18 11:11:38;;;;;;;4.55;3.97;;;;;;;32.03;39.54;93113.06;5064108;28;20067;-79
2023/08/18 11:14:06;;;;;;;4.47;4.07;;;;;;;32.40;40.50;93115.28;5063113;28;20178;-79
2023/08/18 11:16:36;;;;;;;5.00;4.05;;;;;;;32.31;40.83;93116.63;5064626;28;20465;-79
2023/08/18 11:19:05;;;;;;;4.13;3.83;;;;;;;32.71;40.47;93118.13;5064560;28;20043;-78
2023/08/18 11:21:35;;;;;;;4.75;4.00;;;;;;;33.02;39.73;93123.63;5065902;28;20143;-79